Página principal
METAR-TAF:

METAR-TAF

Aeroportos :

Beirute, Líbano

latitude: 33-49N, longitude: 035-29E, altura: 29 m

Observação actual do tempo

O boletim foi feito há 59 minutos, às 00:00 UTC
Vento 5 kt de su-sudeste
Temperatura 25°C
Humidade 61%
Pressão 1013 hPa
Visibilidade 10 km ou mais
Poucas nuvensa uma altura de 2600 ft

METAR: OLBA 230000Z 15005KT 9999 FEW026 25/17 Q1013 NOSIG

Hora: 03:59 (00:59 UTC)

Previsão

O boletim foi feito há 2 horas e 59 minutos, às 22:00 UTC
Previsão válida de 23 às 00 UTC a 24 às 06 UTC
Vento 10 kt de sudoeste
Visibilidade 10 km ou mais
Poucas nuvensa uma altura de 2600 ft
Tornando-se
de 23 às 09 UTC a 23 às 12 UTC
Vento 10 kt de sudoeste
Visibilidade: 8000 m
Nuvens dispersasa uma altura de 2600 ft
Tornando-se
de 23 às 18 UTC a 23 às 21 UTC
Vento 10 kt de sul

TAF: OLBA 222200Z 2300/2406 22010KT 9999 FEW026 BECMG 2309/2312 23010KT 8000 SCT026 BECMG 2318/2321 18010KT

Observações e previsões do tempo de mais de 4000 aeroportos (mensagens METAR e TAF).

As estações disponíveis são os pontos amarelos e vermelhos sobre o mapa.

Mova o rato sobre o mapa para ver o nome da estação.

Depois clique no ponto para visualizar as observações e previsões meteorológicas.

Para alterar o mapa : clique nos botões verdes com uma cruz preta para aumentar o zoom; no botão verde com uma pitada de zoom; ou nas setas verdes para mapas adjacentes.


METAR-TAF: